createdAt,value
2023-04-16T00:02:05.611Z,98486.80
2023-04-16T00:04:34.728Z,98483.05
2023-04-16T00:07:03.492Z,98479.40
2023-04-16T00:09:32.271Z,98479.98
2023-04-16T00:12:01.828Z,98480.44
2023-04-16T00:14:30.847Z,98479.82
2023-04-16T00:16:59.738Z,98477.59
2023-04-16T00:19:32.007Z,98478.80
2023-04-16T00:22:01.151Z,98479.45
2023-04-16T00:24:30.185Z,98473.89
2023-04-16T00:26:58.753Z,98476.77
2023-04-16T00:29:29.478Z,98476.36
2023-04-16T00:31:58.670Z,98475.42
2023-04-16T00:34:27.271Z,98472.98
2023-04-16T00:36:56.087Z,98472.27
2023-04-16T00:39:24.985Z,98470.34
2023-04-16T00:41:54.045Z,98470.30
2023-04-16T00:44:22.928Z,98470.42
2023-04-16T00:46:52.135Z,98469.55
2023-04-16T00:49:21.555Z,98470.55
2023-04-16T00:51:51.185Z,98470.49
2023-04-16T00:54:20.277Z,98469.39
2023-04-16T00:56:49.781Z,98469.85
2023-04-16T00:59:18.825Z,98472.02
2023-04-16T01:01:47.709Z,98470.98
2023-04-16T01:04:16.803Z,98469.08
2023-04-16T01:06:45.709Z,98468.05
2023-04-16T01:09:16.119Z,98470.98
2023-04-16T01:11:44.999Z,98466.81
2023-04-16T01:14:13.801Z,98467.48
2023-04-16T01:16:42.631Z,98465.20
2023-04-16T01:19:11.668Z,98467.08
2023-04-16T01:21:40.723Z,98471.73
2023-04-16T01:24:09.750Z,98475.34
2023-04-16T01:26:38.531Z,98473.94
2023-04-16T01:29:07.845Z,98474.41
2023-04-16T01:31:37.078Z,98475.63
2023-04-16T01:34:11.012Z,98478.88
2023-04-16T01:36:39.940Z,98481.08
2023-04-16T01:39:14.070Z,98483.10
2023-04-16T01:41:43.885Z,98483.93
2023-04-16T01:44:12.314Z,98490.63
2023-04-16T01:46:41.517Z,98492.64
2023-04-16T01:49:10.775Z,98495.70
2023-04-16T01:51:39.393Z,98500.64
2023-04-16T01:54:08.459Z,98502.28
2023-04-16T01:56:37.436Z,98499.08
2023-04-16T01:59:05.887Z,98499.77
2023-04-16T02:01:39.533Z,98500.70
2023-04-16T02:04:08.579Z,98501.27
2023-04-16T02:06:37.086Z,98502.58
2023-04-16T02:09:06.793Z,98505.48
2023-04-16T02:11:35.662Z,98504.45
2023-04-16T02:14:04.102Z,98504.66
2023-04-16T02:16:33.523Z,98506.72
2023-04-16T02:19:11.720Z,98509.16
2023-04-16T02:21:42.461Z,98507.64
2023-04-16T02:24:11.073Z,98512.09
2023-04-16T02:26:39.929Z,98516.70
2023-04-16T02:29:11.953Z,98519.29
2023-04-16T02:31:44.886Z,98514.11
2023-04-16T02:34:15.091Z,98513.94
2023-04-16T02:36:43.729Z,98515.50
2023-04-16T02:39:12.514Z,98515.53
2023-04-16T02:41:41.890Z,98517.28
2023-04-16T02:44:10.350Z,98519.84
2023-04-16T02:46:38.936Z,98522.88
2023-04-16T02:49:08.354Z,98522.48
2023-04-16T02:51:37.214Z,98524.29
2023-04-16T02:54:06.183Z,98526.26
2023-04-16T02:56:35.530Z,98530.67
2023-04-16T02:59:04.099Z,98531.85
2023-04-16T03:01:33.100Z,98527.14
2023-04-16T03:04:02.269Z,98528.85
2023-04-16T03:06:31.689Z,98527.36
2023-04-16T03:09:00.460Z,98529.37
2023-04-16T03:11:29.735Z,98529.54
2023-04-16T03:13:58.221Z,98532.96
2023-04-16T03:16:27.313Z,98531.89
2023-04-16T03:18:56.376Z,98530.90
2023-04-16T03:21:24.829Z,98533.36
2023-04-16T03:23:54.243Z,98538.09
2023-04-16T03:26:24.186Z,98539.10
2023-04-16T03:28:52.846Z,98542.18
2023-04-16T03:31:25.100Z,98547.64
2023-04-16T03:33:54.431Z,98555.71
2023-04-16T03:36:23.697Z,98559.20
2023-04-16T03:38:52.372Z,98569.23
2023-04-16T03:41:21.440Z,98569.86
2023-04-16T03:43:50.297Z,98566.83
2023-04-16T03:46:19.110Z,98571.08
2023-04-16T03:48:47.882Z,98578.84
2023-04-16T03:51:17.248Z,98578.92
2023-04-16T03:53:46.530Z,98583.49
2023-04-16T03:56:15.673Z,98586.33
2023-04-16T03:58:44.501Z,98587.73
2023-04-16T04:01:13.274Z,98596.06
2023-04-16T04:03:42.338Z,98598.89
2023-04-16T04:06:12.202Z,98604.95
2023-04-16T04:08:40.907Z,98607.80
2023-04-16T04:11:09.369Z,98616.78
2023-04-16T04:13:38.806Z,98621.79
2023-04-16T04:16:08.022Z,98627.41
2023-04-16T04:18:36.536Z,98626.48
2023-04-16T04:21:09.212Z,98631.83
2023-04-16T04:23:38.600Z,98629.30
2023-04-16T04:26:07.864Z,98623.25
2023-04-16T04:28:37.325Z,98623.08
2023-04-16T04:31:06.117Z,98626.48
2023-04-16T04:33:35.325Z,98628.52
2023-04-16T04:36:04.213Z,98631.69
2023-04-16T04:38:34.396Z,98632.89
2023-04-16T04:41:03.075Z,98636.04
2023-04-16T04:43:34.941Z,98638.70
2023-04-16T04:46:04.254Z,98639.85
2023-04-16T04:48:33.021Z,98639.23
2023-04-16T04:51:04.236Z,98641.56
2023-04-16T04:53:35.007Z,98643.92
2023-04-16T04:56:12.137Z,98646.84
2023-04-16T04:58:42.822Z,98647.73
2023-04-16T05:01:11.789Z,98648.14
2023-04-16T05:03:40.399Z,98650.17
2023-04-16T05:06:09.669Z,98652.94
2023-04-16T05:08:38.652Z,98656.55
2023-04-16T05:11:07.098Z,98662.04
2023-04-16T05:13:35.923Z,98664.11
2023-04-16T05:16:05.436Z,98668.80
2023-04-16T05:18:33.874Z,98670.24
2023-04-16T05:21:02.582Z,98664.15
2023-04-16T05:23:32.166Z,98664.40
2023-04-16T05:26:00.999Z,98670.06
2023-04-16T05:28:30.991Z,98668.84
2023-04-16T05:30:59.815Z,98673.50
2023-04-16T05:33:28.466Z,98674.18
2023-04-16T05:35:57.249Z,98678.56
2023-04-16T05:38:25.896Z,98681.35
2023-04-16T05:40:54.778Z,98683.48
2023-04-16T05:43:23.473Z,98684.58
2023-04-16T05:45:52.147Z,98686.09
2023-04-16T05:48:20.736Z,98688.85
2023-04-16T05:50:50.210Z,98691.42
2023-04-16T05:53:19.862Z,98693.30
2023-04-16T05:55:48.717Z,98701.67
2023-04-16T05:58:17.604Z,98703.96
2023-04-16T06:00:46.300Z,98707.48
2023-04-16T06:03:15.292Z,98714.20
2023-04-16T06:05:44.854Z,98715.23
2023-04-16T06:08:13.693Z,98719.63
2023-04-16T06:10:42.399Z,98717.38
2023-04-16T06:13:11.720Z,98717.00
2023-04-16T06:15:40.376Z,98721.55
2023-04-16T06:18:09.069Z,98721.59
2023-04-16T06:20:38.400Z,98726.33
2023-04-16T06:23:06.935Z,98727.38
2023-04-16T06:25:35.393Z,98729.70
2023-04-16T06:28:04.595Z,98736.36
2023-04-16T06:30:34.082Z,98737.10
2023-04-16T06:33:02.677Z,98736.35
2023-04-16T06:35:31.760Z,98737.03
2023-04-16T06:38:00.715Z,98735.73
2023-04-16T06:40:29.276Z,98735.86
2023-04-16T06:42:58.457Z,98732.73
2023-04-16T06:45:27.473Z,98736.06
2023-04-16T06:47:56.102Z,98739.95
2023-04-16T06:50:27.109Z,98742.42
2023-04-16T06:52:56.710Z,98744.57
2023-04-16T06:55:25.130Z,98750.20
2023-04-16T06:57:53.994Z,98750.07
2023-04-16T07:00:23.100Z,98757.15
2023-04-16T07:02:52.054Z,98755.92
2023-04-16T07:05:21.528Z,98756.92
2023-04-16T07:07:50.462Z,98761.90
2023-04-16T07:10:19.170Z,98767.25
2023-04-16T07:12:47.967Z,98773.80
2023-04-16T07:15:17.041Z,98776.52
2023-04-16T07:17:45.828Z,98778.94
2023-04-16T07:20:14.773Z,98780.27
2023-04-16T07:22:44.214Z,98786.12
2023-04-16T07:25:12.873Z,98785.29
2023-04-16T07:27:41.598Z,98786.48
2023-04-16T07:30:11.157Z,98786.25
2023-04-16T07:32:39.777Z,98783.77
2023-04-16T07:35:09.021Z,98786.59
2023-04-16T07:37:37.774Z,98785.64
2023-04-16T07:40:07.137Z,98791.55
2023-04-16T07:42:36.205Z,98788.80
2023-04-16T07:45:05.491Z,98787.42
2023-04-16T07:47:34.121Z,98786.73
2023-04-16T07:50:03.103Z,98791.54
2023-04-16T07:52:32.363Z,98792.48
2023-04-16T07:55:01.816Z,98795.72
2023-04-16T07:57:30.957Z,98801.16
2023-04-16T07:59:59.868Z,98802.24
2023-04-16T08:02:28.666Z,98807.80
2023-04-16T08:04:58.007Z,98810.03
2023-04-16T08:07:27.227Z,98816.79
2023-04-16T08:09:55.736Z,98820.51
2023-04-16T08:12:24.960Z,98820.00
2023-04-16T08:14:53.737Z,98823.21
2023-04-16T08:17:22.531Z,98823.62
2023-04-16T08:19:51.750Z,98823.09
2023-04-16T08:22:20.589Z,98821.79
2023-04-16T08:24:49.078Z,98821.40
2023-04-16T08:27:19.945Z,98824.38
2023-04-16T08:29:49.424Z,98827.50
2023-04-16T08:32:17.996Z,98830.73
2023-04-16T08:34:46.986Z,98836.55
2023-04-16T08:37:15.746Z,98834.09
2023-04-16T08:39:44.679Z,98834.48
2023-04-16T08:42:28.731Z,98835.08
2023-04-16T08:45:09.253Z,98836.04
2023-04-16T08:47:39.278Z,98836.25
2023-04-16T08:50:11.523Z,98838.23
2023-04-16T08:52:47.703Z,98836.55
2023-04-16T08:55:19.081Z,98841.92
2023-04-16T08:57:51.554Z,98844.36
2023-04-16T09:00:21.495Z,98842.50
2023-04-16T09:02:51.789Z,98847.98
2023-04-16T09:05:23.670Z,98852.24
2023-04-16T09:07:54.800Z,98852.86
2023-04-16T09:10:24.078Z,98856.27
2023-04-16T09:12:52.908Z,98859.70
2023-04-16T09:15:22.812Z,98861.45
2023-04-16T09:17:51.913Z,98861.92
2023-04-16T09:20:21.336Z,98863.30
2023-04-16T09:22:50.591Z,98864.50
2023-04-16T09:25:22.797Z,98858.52
2023-04-16T09:27:51.721Z,98857.18
2023-04-16T09:30:25.029Z,98857.52
2023-04-16T09:33:13.792Z,98858.60
2023-04-16T09:35:54.929Z,98860.08
2023-04-16T09:38:26.820Z,98864.23
2023-04-16T09:41:08.739Z,98865.16
2023-04-16T09:43:37.751Z,98863.97
2023-04-16T09:46:08.145Z,98868.64
2023-04-16T09:48:41.189Z,98866.83
2023-04-16T09:51:23.587Z,98864.84
2023-04-16T09:53:54.340Z,98867.88
2023-04-16T09:56:30.657Z,98872.30
2023-04-16T09:59:02.949Z,98874.60
2023-04-16T10:01:31.600Z,98875.66
2023-04-16T10:04:01.905Z,98871.91
2023-04-16T10:06:31.821Z,98870.64
2023-04-16T10:09:17.197Z,98871.69
2023-04-16T10:11:46.622Z,98873.73
2023-04-16T10:14:15.071Z,98871.83
2023-04-16T10:16:44.344Z,98876.70
2023-04-16T10:19:14.407Z,98879.42
2023-04-16T10:21:43.309Z,98877.16
2023-04-16T10:24:13.047Z,98881.09
2023-04-16T10:26:43.018Z,98875.04
2023-04-16T10:29:15.221Z,98876.55
2023-04-16T10:31:45.506Z,98872.73
2023-04-16T10:34:15.298Z,98872.58
2023-04-16T10:36:43.770Z,98869.73
2023-04-16T10:39:16.822Z,98868.17
2023-04-16T10:41:45.824Z,98869.33
2023-04-16T10:44:18.362Z,98870.13
2023-04-16T10:47:00.561Z,98867.52
2023-04-16T10:49:29.872Z,98868.14
2023-04-16T10:52:08.493Z,98866.56
2023-04-16T10:54:38.089Z,98871.21
2023-04-16T10:57:09.311Z,98872.92
2023-04-16T10:59:40.388Z,98873.93
2023-04-16T11:02:14.085Z,98878.62
2023-04-16T11:04:47.518Z,98882.52
2023-04-16T11:07:20.096Z,98877.48
2023-04-16T11:10:00.227Z,98874.80
2023-04-16T11:12:46.743Z,98874.08
2023-04-16T11:15:20.117Z,98877.02
2023-04-16T11:17:52.927Z,98883.73
2023-04-16T11:20:26.690Z,98881.86
2023-04-16T11:22:57.204Z,98881.08
2023-04-16T11:25:30.131Z,98878.76
2023-04-16T11:28:01.988Z,98880.83
2023-04-16T11:30:35.811Z,98883.23
2023-04-16T11:33:12.109Z,98886.04
2023-04-16T11:35:41.776Z,98883.57
2023-04-16T11:38:10.294Z,98877.95
2023-04-16T11:40:38.779Z,98880.92
2023-04-16T11:43:16.121Z,98886.69
2023-04-16T11:46:05.560Z,98890.21
2023-04-16T11:48:58.691Z,98889.84
2023-04-16T11:51:27.565Z,98889.95
2023-04-16T11:53:56.481Z,98884.77
2023-04-16T11:56:30.251Z,98889.69
2023-04-16T11:59:14.420Z,98888.71
2023-04-16T12:01:48.013Z,98884.06
2023-04-16T12:04:20.125Z,98881.60
2023-04-16T12:07:12.416Z,98882.42
2023-04-16T12:09:43.248Z,98880.15
2023-04-16T12:12:32.427Z,98882.56
2023-04-16T12:15:05.579Z,98881.29
2023-04-16T12:17:36.171Z,98881.38
2023-04-16T12:20:10.030Z,98885.45
2023-04-16T12:22:41.816Z,98886.56
2023-04-16T12:25:16.292Z,98885.98
2023-04-16T12:27:53.955Z,98888.89
2023-04-16T12:30:26.353Z,98889.64
2023-04-16T12:33:14.888Z,98884.56
2023-04-16T12:35:44.332Z,98886.81
2023-04-16T12:38:15.707Z,98886.46
2023-04-16T12:40:44.268Z,98887.54
2023-04-16T12:43:13.396Z,98885.64
2023-04-16T12:45:42.899Z,98880.45
2023-04-16T12:48:11.849Z,98884.73
2023-04-16T12:50:40.738Z,98881.69
2023-04-16T12:53:09.249Z,98882.48
2023-04-16T12:55:38.204Z,98876.63
2023-04-16T12:58:07.105Z,98872.40
2023-04-16T13:00:36.434Z,98873.50
2023-04-16T13:03:05.194Z,98873.80
2023-04-16T13:05:34.731Z,98870.02
2023-04-16T13:08:03.324Z,98868.86
2023-04-16T13:10:32.077Z,98862.19
2023-04-16T13:13:00.935Z,98861.81
2023-04-16T13:15:29.566Z,98861.16
2023-04-16T13:17:58.469Z,98866.59
2023-04-16T13:20:27.401Z,98867.33
2023-04-16T13:22:56.477Z,98867.86
2023-04-16T13:25:25.310Z,98867.77
2023-04-16T13:27:54.044Z,98865.40
2023-04-16T13:30:22.736Z,98860.78
2023-04-16T13:32:51.382Z,98856.35
2023-04-16T13:35:20.476Z,98862.38
2023-04-16T13:37:49.331Z,98864.37
2023-04-16T13:40:18.087Z,98867.96
2023-04-16T13:42:47.301Z,98868.90
2023-04-16T13:45:16.300Z,98868.09
2023-04-16T13:47:44.767Z,98868.70
2023-04-16T13:50:13.963Z,98867.86
2023-04-16T13:52:42.524Z,98870.67
2023-04-16T13:55:14.188Z,98872.95
2023-04-16T13:57:43.173Z,98877.51
2023-04-16T14:00:13.349Z,98877.40
2023-04-16T14:02:43.246Z,98875.57
2023-04-16T14:05:12.470Z,98878.27
2023-04-16T14:07:41.640Z,98876.95
2023-04-16T14:10:10.637Z,98877.10
2023-04-16T14:12:39.827Z,98879.02
2023-04-16T14:15:10.947Z,98877.31
2023-04-16T14:17:39.457Z,98876.79
2023-04-16T14:20:09.520Z,98874.34
2023-04-16T14:22:38.577Z,98872.78
2023-04-16T14:25:07.542Z,98873.16
2023-04-16T14:27:37.445Z,98875.77
2023-04-16T14:30:07.524Z,98878.58
2023-04-16T14:32:36.717Z,98880.69
2023-04-16T14:35:06.102Z,98878.46
2023-04-16T14:37:36.956Z,98882.15
2023-04-16T14:40:09.114Z,98882.17
2023-04-16T14:42:39.237Z,98880.61
2023-04-16T14:45:08.451Z,98882.00
2023-04-16T14:47:38.518Z,98883.91
2023-04-16T14:50:08.072Z,98887.05
2023-04-16T14:52:36.672Z,98888.77
2023-04-16T14:55:06.090Z,98892.93
2023-04-16T14:57:35.990Z,98892.08
2023-04-16T15:00:10.325Z,98900.11
2023-04-16T15:02:39.961Z,98900.98
2023-04-16T15:05:10.841Z,98904.98
2023-04-16T15:07:39.967Z,98910.56
2023-04-16T15:10:10.262Z,98921.02
2023-04-16T15:12:39.462Z,98934.98
2023-04-16T15:15:09.302Z,98933.41
2023-04-16T15:17:38.185Z,98928.77
2023-04-16T15:20:08.543Z,98937.44
2023-04-16T15:22:39.017Z,98943.27
2023-04-16T15:25:07.795Z,98949.92
2023-04-16T15:27:36.983Z,98947.85
2023-04-16T15:30:07.297Z,98943.84
2023-04-16T15:32:35.936Z,98944.00
2023-04-16T15:35:05.191Z,98944.87
2023-04-16T15:37:34.122Z,98940.16
2023-04-16T15:40:05.752Z,98941.89
2023-04-16T15:42:35.085Z,98943.10
2023-04-16T15:45:04.034Z,98946.73
2023-04-16T15:47:32.672Z,98948.42
2023-04-16T15:50:01.444Z,98944.92
2023-04-16T15:52:31.004Z,98948.55
2023-04-16T15:55:01.699Z,98950.98
2023-04-16T15:57:32.108Z,98952.71
2023-04-16T16:00:06.492Z,98953.94
2023-04-16T16:02:36.644Z,98950.83
2023-04-16T16:05:07.904Z,98949.44
2023-04-16T16:07:37.188Z,98953.94
2023-04-16T16:10:07.216Z,98957.04
2023-04-16T16:12:36.035Z,98959.45
2023-04-16T16:15:06.738Z,98961.19
2023-04-16T16:17:36.657Z,98961.89
2023-04-16T16:20:10.058Z,98962.75
2023-04-16T16:22:39.502Z,98959.04
2023-04-16T16:25:08.573Z,98957.63
2023-04-16T16:27:37.117Z,98956.20
2023-04-16T16:30:07.980Z,98953.39
2023-04-16T16:32:37.882Z,98954.44
2023-04-16T16:35:09.469Z,98954.60
2023-04-16T16:37:38.854Z,98954.23
2023-04-16T16:40:09.108Z,98955.27
2023-04-16T16:42:37.883Z,98957.02
2023-04-16T16:45:07.061Z,98955.80
2023-04-16T16:47:36.141Z,98955.31
2023-04-16T16:50:06.078Z,98952.55
2023-04-16T16:52:34.524Z,98954.10
2023-04-16T16:55:04.301Z,98958.08
2023-04-16T16:57:33.044Z,98957.39
2023-04-16T17:00:01.542Z,98960.34
2023-04-16T17:02:30.653Z,98960.86
2023-04-16T17:05:09.521Z,98960.52
2023-04-16T17:07:39.359Z,98961.05
2023-04-16T17:10:09.194Z,98963.15
2023-04-16T17:12:37.893Z,98962.95
2023-04-16T17:15:06.862Z,98963.98
2023-04-16T17:17:35.629Z,98960.98
2023-04-16T17:20:09.357Z,98966.52
2023-04-16T17:22:40.075Z,98963.52
2023-04-16T17:25:08.956Z,98966.48
2023-04-16T17:27:37.725Z,98966.80
2023-04-16T17:30:08.036Z,98970.94
2023-04-16T17:32:37.072Z,98979.61
2023-04-16T17:35:07.204Z,98991.23
2023-04-16T17:37:36.097Z,98989.79
2023-04-16T17:40:07.858Z,98990.62
2023-04-16T17:42:37.470Z,99000.84
2023-04-16T17:45:07.077Z,99004.59
2023-04-16T17:47:36.607Z,98998.98
2023-04-16T17:50:06.500Z,99000.71
2023-04-16T17:52:35.183Z,99001.91
2023-04-16T17:55:05.266Z,99001.91
2023-04-16T17:57:34.163Z,99003.68
2023-04-16T18:00:05.742Z,99010.45
2023-04-16T18:02:43.653Z,99014.43
2023-04-16T18:05:12.770Z,99020.85
2023-04-16T18:07:41.529Z,99027.09
2023-04-16T18:10:10.658Z,99028.30
2023-04-16T18:12:39.467Z,99038.54
2023-04-16T18:15:09.368Z,99047.20
2023-04-16T18:17:38.377Z,99054.80
2023-04-16T18:20:09.233Z,99057.15
2023-04-16T18:22:38.099Z,99062.94
2023-04-16T18:25:07.888Z,99071.69
2023-04-16T18:27:36.523Z,99076.61
2023-04-16T18:30:06.323Z,99078.98
2023-04-16T18:32:37.313Z,99079.63
2023-04-16T18:35:07.869Z,99083.11
2023-04-16T18:37:37.237Z,99082.27
2023-04-16T18:40:07.422Z,99086.63
2023-04-16T18:42:36.052Z,99088.34
2023-04-16T18:45:06.798Z,99091.27
2023-04-16T18:47:35.369Z,99091.74
2023-04-16T18:50:04.090Z,99093.25
2023-04-16T18:52:33.167Z,99096.91
2023-04-16T18:55:01.668Z,99093.55
2023-04-16T18:57:30.889Z,99097.73
2023-04-16T18:59:59.845Z,99094.85
2023-04-16T19:02:28.412Z,99098.73
2023-04-16T19:04:57.591Z,99099.27
2023-04-16T19:07:26.618Z,99098.92
2023-04-16T19:09:55.081Z,99097.44
2023-04-16T19:12:23.975Z,99093.34
2023-04-16T19:14:53.202Z,99097.77
2023-04-16T19:17:21.706Z,99097.91
2023-04-16T19:19:50.263Z,99099.23
2023-04-16T19:22:19.376Z,99099.90
2023-04-16T19:24:47.808Z,99102.20
2023-04-16T19:27:16.439Z,99107.55
2023-04-16T19:29:47.378Z,99113.09
2023-04-16T19:32:15.940Z,99117.07
2023-04-16T19:34:44.621Z,99121.72
2023-04-16T19:37:13.756Z,99120.84
2023-04-16T19:39:42.329Z,99119.81
2023-04-16T19:42:11.161Z,99117.36
2023-04-16T19:44:40.303Z,99117.10
2023-04-16T19:47:08.774Z,99115.60
2023-04-16T19:49:37.510Z,99113.27
2023-04-16T19:52:06.459Z,99113.91
2023-04-16T19:54:37.535Z,99116.52
2023-04-16T19:57:06.359Z,99116.20
2023-04-16T19:59:35.601Z,99116.36
2023-04-16T20:02:04.209Z,99118.79
2023-04-16T20:04:34.278Z,99121.79
2023-04-16T20:07:03.307Z,99119.46
2023-04-16T20:09:31.760Z,99117.98
2023-04-16T20:12:01.067Z,99117.85
2023-04-16T20:14:30.785Z,99120.64
2023-04-16T20:16:59.389Z,99117.17
2023-04-16T20:19:32.166Z,99116.08
2023-04-16T20:22:00.799Z,99116.53
2023-04-16T20:24:31.318Z,99116.83
2023-04-16T20:27:00.498Z,99115.74
2023-04-16T20:29:29.248Z,99115.20
2023-04-16T20:31:58.065Z,99118.66
2023-04-16T20:34:28.367Z,99119.23
2023-04-16T20:36:58.349Z,99116.84
2023-04-16T20:39:27.682Z,99120.32
2023-04-16T20:41:59.368Z,99123.48
2023-04-16T20:44:33.579Z,99124.71
2023-04-16T20:47:02.881Z,99124.02
2023-04-16T20:49:34.950Z,99122.80
2023-04-16T20:52:04.406Z,99119.28
2023-04-16T20:54:32.980Z,99122.44
2023-04-16T20:57:02.273Z,99123.23
2023-04-16T20:59:32.649Z,99118.51
2023-04-16T21:02:01.805Z,99117.14
2023-04-16T21:04:30.339Z,99118.70
2023-04-16T21:06:59.391Z,99117.59
2023-04-16T21:09:27.930Z,99117.19
2023-04-16T21:11:56.865Z,99118.65
2023-04-16T21:14:25.841Z,99116.14
2023-04-16T21:16:55.159Z,99118.47
2023-04-16T21:19:23.619Z,99122.23
2023-04-16T21:21:52.302Z,99121.94
2023-04-16T21:24:21.239Z,99124.91
2023-04-16T21:26:49.673Z,99124.61
2023-04-16T21:29:18.171Z,99120.44
2023-04-16T21:31:47.485Z,99116.95
2023-04-16T21:34:15.992Z,99116.88
2023-04-16T21:36:44.943Z,99119.55
2023-04-16T21:39:15.220Z,99115.86
2023-04-16T21:41:43.767Z,99119.10
2023-04-16T21:44:12.602Z,99118.14
2023-04-16T21:46:41.824Z,99121.02
2023-04-16T21:49:10.571Z,99117.51
2023-04-16T21:51:40.773Z,99115.77
2023-04-16T21:54:09.757Z,99114.19
2023-04-16T21:56:38.262Z,99117.21
2023-04-16T21:59:06.988Z,99113.64
2023-04-16T22:01:36.161Z,99113.52
2023-04-16T22:04:05.340Z,99112.36
2023-04-16T22:06:34.022Z,99110.90
2023-04-16T22:09:03.253Z,99114.92
2023-04-16T22:11:32.063Z,99111.27
2023-04-16T22:14:00.949Z,99118.73
2023-04-16T22:16:29.873Z,99115.78
2023-04-16T22:18:58.784Z,99112.84
2023-04-16T22:21:28.132Z,99109.85
2023-04-16T22:23:57.372Z,99113.77
2023-04-16T22:26:26.459Z,99111.54
2023-04-16T22:28:55.498Z,99114.86
2023-04-16T22:31:24.457Z,99111.51
2023-04-16T22:33:53.241Z,99110.89
2023-04-16T22:36:22.545Z,99108.23
2023-04-16T22:38:51.208Z,99107.19
2023-04-16T22:41:19.624Z,99107.39
2023-04-16T22:43:50.086Z,99107.16
2023-04-16T22:46:22.555Z,99106.56
2023-04-16T22:48:52.504Z,99101.89
2023-04-16T22:51:24.664Z,99102.19
2023-04-16T22:53:54.286Z,99104.20
2023-04-16T22:56:22.785Z,99102.06
2023-04-16T22:58:51.337Z,99101.34
2023-04-16T23:01:20.682Z,99098.19
2023-04-16T23:03:49.433Z,99102.41
2023-04-16T23:06:17.963Z,99104.20
2023-04-16T23:08:47.111Z,99097.07
2023-04-16T23:11:15.882Z,99097.11
2023-04-16T23:13:44.553Z,99097.91
2023-04-16T23:16:14.020Z,99093.11
2023-04-16T23:18:42.597Z,99088.98
2023-04-16T23:21:11.329Z,99087.35
2023-04-16T23:23:40.866Z,99084.73
2023-04-16T23:26:09.834Z,99085.77
2023-04-16T23:28:38.291Z,99090.42
2023-04-16T23:31:08.069Z,99092.30
2023-04-16T23:33:36.539Z,99091.59
2023-04-16T23:36:05.383Z,99093.73
2023-04-16T23:38:34.842Z,99092.71
2023-04-16T23:41:03.261Z,99092.54
2023-04-16T23:43:31.708Z,99091.16
2023-04-16T23:46:02.776Z,99092.45
2023-04-16T23:48:31.253Z,99091.86
2023-04-16T23:50:59.724Z,99089.23
2023-04-16T23:53:28.896Z,99089.17
2023-04-16T23:55:57.368Z,99086.04
2023-04-16T23:58:26.930Z,99086.05
